sensor_id;sensor_type;location;lat;lon;timestamp;P1;durP1;ratioP1;P2;durP2;ratioP2
45043;SDS011;30784;48.490;9.688;2022-10-16T00:01:24;5.13;;;1.20;;
45043;SDS011;30784;48.490;9.688;2022-10-16T00:03:54;3.28;;;1.00;;
45043;SDS011;30784;48.490;9.688;2022-10-16T00:06:21;3.03;;;0.90;;
45043;SDS011;30784;48.490;9.688;2022-10-16T00:08:47;1.95;;;0.80;;
45043;SDS011;30784;48.490;9.688;2022-10-16T00:11:24;5.50;;;1.20;;
45043;SDS011;30784;48.490;9.688;2022-10-16T00:13:54;3.75;;;1.00;;
45043;SDS011;30784;48.490;9.688;2022-10-16T00:16:22;3.30;;;1.05;;
45043;SDS011;30784;48.490;9.688;2022-10-16T00:18:47;3.40;;;0.98;;
45043;SDS011;30784;48.490;9.688;2022-10-16T00:21:17;4.60;;;1.13;;
45043;SDS011;30784;48.490;9.688;2022-10-16T00:23:53;1.88;;;0.88;;
45043;SDS011;30784;48.490;9.688;2022-10-16T00:26:21;3.35;;;0.70;;
45043;SDS011;30784;48.490;9.688;2022-10-16T00:28:50;1.70;;;0.70;;
45043;SDS011;30784;48.490;9.688;2022-10-16T00:31:17;4.37;;;0.83;;
45043;SDS011;30784;48.490;9.688;2022-10-16T00:33:43;2.67;;;0.70;;
45043;SDS011;30784;48.490;9.688;2022-10-16T00:36:10;3.15;;;0.85;;
45043;SDS011;30784;48.490;9.688;2022-10-16T00:38:38;5.30;;;1.00;;
45043;SDS011;30784;48.490;9.688;2022-10-16T00:41:04;4.63;;;0.93;;
45043;SDS011;30784;48.490;9.688;2022-10-16T00:43:33;3.15;;;1.00;;
45043;SDS011;30784;48.490;9.688;2022-10-16T00:45:59;3.67;;;0.93;;
45043;SDS011;30784;48.490;9.688;2022-10-16T00:48:26;4.78;;;0.90;;
45043;SDS011;30784;48.490;9.688;2022-10-16T00:50:52;3.08;;;0.90;;
45043;SDS011;30784;48.490;9.688;2022-10-16T00:53:18;2.85;;;0.80;;
45043;SDS011;30784;48.490;9.688;2022-10-16T00:55:45;2.00;;;0.75;;
45043;SDS011;30784;48.490;9.688;2022-10-16T00:58:10;1.65;;;0.60;;
45043;SDS011;30784;48.490;9.688;2022-10-16T01:00:37;3.47;;;0.93;;
45043;SDS011;30784;48.490;9.688;2022-10-16T01:03:03;4.82;;;0.90;;
45043;SDS011;30784;48.490;9.688;2022-10-16T01:05:58;3.20;;;0.90;;
45043;SDS011;30784;48.490;9.688;2022-10-16T01:08:52;5.75;;;1.77;;
45043;SDS011;30784;48.490;9.688;2022-10-16T01:14:06;5.72;;;2.30;;
45043;SDS011;30784;48.490;9.688;2022-10-16T01:16:53;5.18;;;1.65;;
45043;SDS011;30784;48.490;9.688;2022-10-16T01:19:36;3.92;;;1.00;;
45043;SDS011;30784;48.490;9.688;2022-10-16T01:22:37;3.25;;;1.02;;
45043;SDS011;30784;48.490;9.688;2022-10-16T01:25:16;3.45;;;1.00;;
45043;SDS011;30784;48.490;9.688;2022-10-16T01:27:50;3.20;;;1.00;;
45043;SDS011;30784;48.490;9.688;2022-10-16T01:30:18;3.42;;;0.80;;
45043;SDS011;30784;48.490;9.688;2022-10-16T01:32:52;3.22;;;0.90;;
45043;SDS011;30784;48.490;9.688;2022-10-16T01:35:27;3.90;;;1.00;;
45043;SDS011;30784;48.490;9.688;2022-10-16T01:40:28;3.08;;;0.90;;
45043;SDS011;30784;48.490;9.688;2022-10-16T01:43:00;3.00;;;0.93;;
45043;SDS011;30784;48.490;9.688;2022-10-16T01:45:46;6.20;;;1.10;;
45043;SDS011;30784;48.490;9.688;2022-10-16T01:48:13;3.05;;;0.93;;
45043;SDS011;30784;48.490;9.688;2022-10-16T01:50:43;3.00;;;1.00;;
45043;SDS011;30784;48.490;9.688;2022-10-16T01:53:13;3.95;;;1.40;;
45043;SDS011;30784;48.490;9.688;2022-10-16T01:55:43;4.75;;;1.30;;
45043;SDS011;30784;48.490;9.688;2022-10-16T01:58:11;6.35;;;1.48;;
45043;SDS011;30784;48.490;9.688;2022-10-16T02:00:38;5.05;;;1.25;;
45043;SDS011;30784;48.490;9.688;2022-10-16T02:03:07;3.70;;;1.25;;
45043;SDS011;30784;48.490;9.688;2022-10-16T02:05:37;3.83;;;1.20;;
45043;SDS011;30784;48.490;9.688;2022-10-16T02:08:10;6.70;;;1.52;;
45043;SDS011;30784;48.490;9.688;2022-10-16T02:10:37;3.03;;;1.10;;
45043;SDS011;30784;48.490;9.688;2022-10-16T02:13:06;4.10;;;1.10;;
45043;SDS011;30784;48.490;9.688;2022-10-16T02:15:38;3.17;;;0.88;;
45043;SDS011;30784;48.490;9.688;2022-10-16T02:18:04;3.17;;;0.95;;
45043;SDS011;30784;48.490;9.688;2022-10-16T02:20:37;4.88;;;0.80;;
45043;SDS011;30784;48.490;9.688;2022-10-16T02:23:27;3.65;;;1.00;;
45043;SDS011;30784;48.490;9.688;2022-10-16T02:26:01;3.47;;;0.95;;
45043;SDS011;30784;48.490;9.688;2022-10-16T02:28:34;3.42;;;1.20;;
45043;SDS011;30784;48.490;9.688;2022-10-16T02:31:09;3.60;;;1.00;;
45043;SDS011;30784;48.490;9.688;2022-10-16T02:33:36;4.85;;;1.00;;
45043;SDS011;30784;48.490;9.688;2022-10-16T02:36:05;7.32;;;3.03;;
45043;SDS011;30784;48.490;9.688;2022-10-16T02:38:31;18.90;;;7.80;;
45043;SDS011;30784;48.490;9.688;2022-10-16T02:40:57;12.60;;;4.50;;
45043;SDS011;30784;48.490;9.688;2022-10-16T02:43:24;8.18;;;2.22;;
45043;SDS011;30784;48.490;9.688;2022-10-16T02:45:51;7.03;;;1.85;;
45043;SDS011;30784;48.490;9.688;2022-10-16T02:48:16;5.28;;;1.25;;
45043;SDS011;30784;48.490;9.688;2022-10-16T02:50:42;4.70;;;1.55;;
45043;SDS011;30784;48.490;9.688;2022-10-16T02:53:07;5.35;;;1.63;;
45043;SDS011;30784;48.490;9.688;2022-10-16T02:55:33;3.22;;;1.13;;
45043;SDS011;30784;48.490;9.688;2022-10-16T02:57:59;3.88;;;1.10;;
45043;SDS011;30784;48.490;9.688;2022-10-16T03:00:24;3.22;;;0.90;;
45043;SDS011;30784;48.490;9.688;2022-10-16T03:02:50;3.50;;;1.00;;
45043;SDS011;30784;48.490;9.688;2022-10-16T03:05:16;2.97;;;1.00;;
45043;SDS011;30784;48.490;9.688;2022-10-16T03:07:41;5.55;;;1.10;;
45043;SDS011;30784;48.490;9.688;2022-10-16T03:10:07;2.58;;;1.00;;
45043;SDS011;30784;48.490;9.688;2022-10-16T03:12:33;3.83;;;1.13;;
45043;SDS011;30784;48.490;9.688;2022-10-16T03:14:58;3.28;;;1.10;;
45043;SDS011;30784;48.490;9.688;2022-10-16T03:17:24;2.50;;;1.05;;
45043;SDS011;30784;48.490;9.688;2022-10-16T03:19:50;3.78;;;1.05;;
45043;SDS011;30784;48.490;9.688;2022-10-16T03:22:16;3.20;;;0.98;;
45043;SDS011;30784;48.490;9.688;2022-10-16T03:24:41;5.38;;;1.40;;
45043;SDS011;30784;48.490;9.688;2022-10-16T03:27:07;6.45;;;2.10;;
45043;SDS011;30784;48.490;9.688;2022-10-16T03:29:33;3.35;;;1.20;;
45043;SDS011;30784;48.490;9.688;2022-10-16T03:31:59;2.45;;;0.98;;
45043;SDS011;30784;48.490;9.688;2022-10-16T03:34:25;3.55;;;0.90;;
45043;SDS011;30784;48.490;9.688;2022-10-16T03:36:51;2.38;;;0.88;;
45043;SDS011;30784;48.490;9.688;2022-10-16T03:39:17;3.67;;;0.90;;
45043;SDS011;30784;48.490;9.688;2022-10-16T03:41:43;5.72;;;1.10;;
45043;SDS011;30784;48.490;9.688;2022-10-16T03:44:08;2.95;;;1.00;;
45043;SDS011;30784;48.490;9.688;2022-10-16T03:46:34;3.88;;;1.13;;
45043;SDS011;30784;48.490;9.688;2022-10-16T03:49:00;3.55;;;0.98;;
45043;SDS011;30784;48.490;9.688;2022-10-16T03:51:25;4.90;;;0.95;;
45043;SDS011;30784;48.490;9.688;2022-10-16T03:53:51;3.45;;;1.23;;
45043;SDS011;30784;48.490;9.688;2022-10-16T03:56:16;3.92;;;1.20;;
45043;SDS011;30784;48.490;9.688;2022-10-16T03:58:42;2.80;;;1.02;;
45043;SDS011;30784;48.490;9.688;2022-10-16T04:01:08;3.30;;;0.90;;
45043;SDS011;30784;48.490;9.688;2022-10-16T04:03:33;2.25;;;0.90;;
45043;SDS011;30784;48.490;9.688;2022-10-16T04:05:59;3.00;;;0.90;;
45043;SDS011;30784;48.490;9.688;2022-10-16T04:08:25;3.00;;;1.20;;
45043;SDS011;30784;48.490;9.688;2022-10-16T04:10:50;3.90;;;1.10;;
45043;SDS011;30784;48.490;9.688;2022-10-16T04:13:16;3.53;;;1.10;;
45043;SDS011;30784;48.490;9.688;2022-10-16T04:15:42;3.33;;;0.93;;
45043;SDS011;30784;48.490;9.688;2022-10-16T04:18:07;2.95;;;1.00;;
45043;SDS011;30784;48.490;9.688;2022-10-16T04:20:33;3.03;;;1.10;;
45043;SDS011;30784;48.490;9.688;2022-10-16T04:22:59;2.88;;;0.93;;
45043;SDS011;30784;48.490;9.688;2022-10-16T04:25:25;4.72;;;0.93;;
45043;SDS011;30784;48.490;9.688;2022-10-16T04:27:52;3.30;;;1.00;;
45043;SDS011;30784;48.490;9.688;2022-10-16T04:30:19;2.95;;;0.80;;
45043;SDS011;30784;48.490;9.688;2022-10-16T04:32:49;3.35;;;1.10;;
45043;SDS011;30784;48.490;9.688;2022-10-16T04:35:16;3.05;;;1.05;;
45043;SDS011;30784;48.490;9.688;2022-10-16T04:37:42;4.20;;;0.98;;
45043;SDS011;30784;48.490;9.688;2022-10-16T04:40:08;3.60;;;0.82;;
45043;SDS011;30784;48.490;9.688;2022-10-16T04:42:34;4.78;;;1.00;;
45043;SDS011;30784;48.490;9.688;2022-10-16T04:45:00;3.50;;;1.10;;
45043;SDS011;30784;48.490;9.688;2022-10-16T04:47:25;3.92;;;1.10;;
45043;SDS011;30784;48.490;9.688;2022-10-16T04:49:51;3.28;;;1.10;;
45043;SDS011;30784;48.490;9.688;2022-10-16T04:52:16;3.47;;;1.25;;
45043;SDS011;30784;48.490;9.688;2022-10-16T04:54:43;3.42;;;1.00;;
45043;SDS011;30784;48.490;9.688;2022-10-16T04:57:10;4.75;;;1.45;;
45043;SDS011;30784;48.490;9.688;2022-10-16T04:59:36;5.28;;;1.55;;
45043;SDS011;30784;48.490;9.688;2022-10-16T05:02:02;3.65;;;1.20;;
45043;SDS011;30784;48.490;9.688;2022-10-16T05:04:28;2.63;;;1.00;;
45043;SDS011;30784;48.490;9.688;2022-10-16T05:06:54;3.72;;;0.90;;
45043;SDS011;30784;48.490;9.688;2022-10-16T05:09:19;4.97;;;1.20;;
45043;SDS011;30784;48.490;9.688;2022-10-16T05:11:45;2.70;;;1.00;;
45043;SDS011;30784;48.490;9.688;2022-10-16T05:14:11;3.17;;;1.00;;
45043;SDS011;30784;48.490;9.688;2022-10-16T05:16:37;3.28;;;1.00;;
45043;SDS011;30784;48.490;9.688;2022-10-16T05:19:02;4.38;;;1.10;;
45043;SDS011;30784;48.490;9.688;2022-10-16T05:21:28;2.65;;;1.00;;
45043;SDS011;30784;48.490;9.688;2022-10-16T05:23:54;3.45;;;1.13;;
45043;SDS011;30784;48.490;9.688;2022-10-16T05:26:20;3.83;;;1.40;;
45043;SDS011;30784;48.490;9.688;2022-10-16T05:28:46;5.50;;;1.30;;
45043;SDS011;30784;48.490;9.688;2022-10-16T05:31:11;4.47;;;1.42;;
45043;SDS011;30784;48.490;9.688;2022-10-16T05:33:37;4.72;;;1.80;;
45043;SDS011;30784;48.490;9.688;2022-10-16T05:36:03;8.02;;;2.95;;
45043;SDS011;30784;48.490;9.688;2022-10-16T05:40:59;14.63;;;7.20;;
45043;SDS011;30784;48.490;9.688;2022-10-16T05:43:24;16.60;;;8.43;;
45043;SDS011;30784;48.490;9.688;2022-10-16T05:45:59;10.70;;;5.40;;
45043;SDS011;30784;48.490;9.688;2022-10-16T05:48:27;7.45;;;3.15;;
45043;SDS011;30784;48.490;9.688;2022-10-16T05:51:01;5.63;;;1.90;;
45043;SDS011;30784;48.490;9.688;2022-10-16T05:53:32;5.22;;;1.77;;
45043;SDS011;30784;48.490;9.688;2022-10-16T05:55:59;3.75;;;1.30;;
45043;SDS011;30784;48.490;9.688;2022-10-16T05:58:30;5.88;;;1.55;;
45043;SDS011;30784;48.490;9.688;2022-10-16T06:01:09;3.22;;;1.20;;
45043;SDS011;30784;48.490;9.688;2022-10-16T06:03:36;2.85;;;1.10;;
45043;SDS011;30784;48.490;9.688;2022-10-16T06:06:15;4.95;;;1.17;;
45043;SDS011;30784;48.490;9.688;2022-10-16T06:08:42;4.20;;;1.13;;
45043;SDS011;30784;48.490;9.688;2022-10-16T06:11:11;4.07;;;1.10;;
45043;SDS011;30784;48.490;9.688;2022-10-16T06:13:41;4.13;;;1.35;;
45043;SDS011;30784;48.490;9.688;2022-10-16T06:16:07;4.85;;;1.13;;
45043;SDS011;30784;48.490;9.688;2022-10-16T06:18:34;4.57;;;1.15;;
45043;SDS011;30784;48.490;9.688;2022-10-16T06:21:06;3.88;;;1.15;;
45043;SDS011;30784;48.490;9.688;2022-10-16T06:23:36;3.85;;;1.20;;
45043;SDS011;30784;48.490;9.688;2022-10-16T06:26:05;3.83;;;1.30;;
45043;SDS011;30784;48.490;9.688;2022-10-16T06:28:36;3.33;;;1.20;;
45043;SDS011;30784;48.490;9.688;2022-10-16T06:31:03;4.07;;;1.40;;
45043;SDS011;30784;48.490;9.688;2022-10-16T06:33:29;3.17;;;1.10;;
45043;SDS011;30784;48.490;9.688;2022-10-16T06:36:02;5.50;;;1.63;;
45043;SDS011;30784;48.490;9.688;2022-10-16T06:38:28;4.22;;;1.55;;
45043;SDS011;30784;48.490;9.688;2022-10-16T06:40:55;7.82;;;2.00;;
45043;SDS011;30784;48.490;9.688;2022-10-16T06:43:21;3.75;;;1.40;;
45043;SDS011;30784;48.490;9.688;2022-10-16T06:45:50;3.60;;;1.15;;
45043;SDS011;30784;48.490;9.688;2022-10-16T06:48:19;4.18;;;1.15;;
45043;SDS011;30784;48.490;9.688;2022-10-16T06:50:56;4.57;;;1.40;;
45043;SDS011;30784;48.490;9.688;2022-10-16T06:53:22;3.65;;;1.30;;
45043;SDS011;30784;48.490;9.688;2022-10-16T06:55:48;5.53;;;1.38;;
45043;SDS011;30784;48.490;9.688;2022-10-16T06:58:13;3.58;;;1.30;;
45043;SDS011;30784;48.490;9.688;2022-10-16T07:00:39;3.40;;;1.17;;
45043;SDS011;30784;48.490;9.688;2022-10-16T07:03:04;2.60;;;0.90;;
45043;SDS011;30784;48.490;9.688;2022-10-16T07:05:30;5.05;;;1.02;;
45043;SDS011;30784;48.490;9.688;2022-10-16T07:07:56;3.17;;;0.90;;
45043;SDS011;30784;48.490;9.688;2022-10-16T07:10:21;2.58;;;0.80;;
45043;SDS011;30784;48.490;9.688;2022-10-16T07:12:49;3.03;;;0.90;;
45043;SDS011;30784;48.490;9.688;2022-10-16T07:15:14;3.00;;;0.90;;
45043;SDS011;30784;48.490;9.688;2022-10-16T07:17:40;5.03;;;0.75;;
45043;SDS011;30784;48.490;9.688;2022-10-16T07:20:06;2.30;;;0.82;;
45043;SDS011;30784;48.490;9.688;2022-10-16T07:22:32;3.72;;;0.90;;
45043;SDS011;30784;48.490;9.688;2022-10-16T07:24:58;4.30;;;0.90;;
45043;SDS011;30784;48.490;9.688;2022-10-16T07:27:23;7.00;;;1.65;;
45043;SDS011;30784;48.490;9.688;2022-10-16T07:29:49;3.45;;;1.00;;
45043;SDS011;30784;48.490;9.688;2022-10-16T07:32:15;3.15;;;0.90;;
45043;SDS011;30784;48.490;9.688;2022-10-16T07:34:40;4.80;;;1.40;;
45043;SDS011;30784;48.490;9.688;2022-10-16T07:37:07;4.78;;;1.30;;
45043;SDS011;30784;48.490;9.688;2022-10-16T07:39:32;5.22;;;1.50;;
45043;SDS011;30784;48.490;9.688;2022-10-16T07:41:58;5.82;;;1.63;;
45043;SDS011;30784;48.490;9.688;2022-10-16T07:44:24;4.72;;;1.40;;
45043;SDS011;30784;48.490;9.688;2022-10-16T07:46:49;3.85;;;1.25;;
45043;SDS011;30784;48.490;9.688;2022-10-16T07:49:15;4.28;;;1.33;;
45043;SDS011;30784;48.490;9.688;2022-10-16T07:51:41;3.90;;;1.10;;
45043;SDS011;30784;48.490;9.688;2022-10-16T07:54:08;3.45;;;1.10;;
45043;SDS011;30784;48.490;9.688;2022-10-16T07:56:34;6.28;;;1.30;;
45043;SDS011;30784;48.490;9.688;2022-10-16T07:59:00;4.38;;;1.25;;
45043;SDS011;30784;48.490;9.688;2022-10-16T08:01:25;3.30;;;1.10;;
45043;SDS011;30784;48.490;9.688;2022-10-16T08:03:51;3.28;;;1.13;;
45043;SDS011;30784;48.490;9.688;2022-10-16T08:06:18;3.38;;;1.08;;
45043;SDS011;30784;48.490;9.688;2022-10-16T08:08:45;4.55;;;1.20;;
45043;SDS011;30784;48.490;9.688;2022-10-16T08:11:10;4.07;;;1.02;;
45043;SDS011;30784;48.490;9.688;2022-10-16T08:13:36;2.40;;;0.90;;
45043;SDS011;30784;48.490;9.688;2022-10-16T08:16:02;2.95;;;1.00;;
45043;SDS011;30784;48.490;9.688;2022-10-16T08:18:32;4.20;;;1.38;;
45043;SDS011;30784;48.490;9.688;2022-10-16T08:21:00;2.40;;;0.90;;
45043;SDS011;30784;48.490;9.688;2022-10-16T08:23:26;2.80;;;1.17;;
45043;SDS011;30784;48.490;9.688;2022-10-16T08:25:54;3.33;;;1.33;;
45043;SDS011;30784;48.490;9.688;2022-10-16T08:28:21;4.28;;;1.30;;
45043;SDS011;30784;48.490;9.688;2022-10-16T08:30:47;4.93;;;1.33;;
45043;SDS011;30784;48.490;9.688;2022-10-16T08:33:13;3.60;;;1.10;;
45043;SDS011;30784;48.490;9.688;2022-10-16T08:35:39;2.78;;;0.90;;
45043;SDS011;30784;48.490;9.688;2022-10-16T08:38:05;3.17;;;0.95;;
45043;SDS011;30784;48.490;9.688;2022-10-16T08:40:32;2.08;;;0.90;;
45043;SDS011;30784;48.490;9.688;2022-10-16T08:48:45;3.08;;;0.70;;
45043;SDS011;30784;48.490;9.688;2022-10-16T08:51:33;2.65;;;0.88;;
45043;SDS011;30784;48.490;9.688;2022-10-16T08:54:01;1.77;;;0.77;;
45043;SDS011;30784;48.490;9.688;2022-10-16T08:56:29;2.75;;;0.90;;
45043;SDS011;30784;48.490;9.688;2022-10-16T08:58:57;3.70;;;1.08;;
45043;SDS011;30784;48.490;9.688;2022-10-16T09:01:24;3.80;;;1.15;;
45043;SDS011;30784;48.490;9.688;2022-10-16T09:06:46;2.97;;;1.00;;
45043;SDS011;30784;48.490;9.688;2022-10-16T09:11:52;4.55;;;1.00;;
45043;SDS011;30784;48.490;9.688;2022-10-16T09:14:50;3.75;;;1.08;;
45043;SDS011;30784;48.490;9.688;2022-10-16T09:17:54;3.47;;;1.00;;
45043;SDS011;30784;48.490;9.688;2022-10-16T09:20:33;4.45;;;0.85;;
45043;SDS011;30784;48.490;9.688;2022-10-16T09:25:28;3.33;;;1.10;;
45043;SDS011;30784;48.490;9.688;2022-10-16T09:27:54;4.45;;;1.13;;
45043;SDS011;30784;48.490;9.688;2022-10-16T09:30:21;3.83;;;1.23;;
45043;SDS011;30784;48.490;9.688;2022-10-16T09:32:48;3.75;;;1.30;;
45043;SDS011;30784;48.490;9.688;2022-10-16T09:35:19;3.40;;;0.95;;
45043;SDS011;30784;48.490;9.688;2022-10-16T09:37:49;3.45;;;1.20;;
45043;SDS011;30784;48.490;9.688;2022-10-16T09:40:26;3.80;;;1.30;;
45043;SDS011;30784;48.490;9.688;2022-10-16T09:43:05;4.13;;;1.20;;
45043;SDS011;30784;48.490;9.688;2022-10-16T09:45:37;2.95;;;1.00;;
45043;SDS011;30784;48.490;9.688;2022-10-16T09:48:11;3.80;;;1.10;;
45043;SDS011;30784;48.490;9.688;2022-10-16T09:50:37;3.17;;;1.05;;
45043;SDS011;30784;48.490;9.688;2022-10-16T09:53:07;3.42;;;1.20;;
45043;SDS011;30784;48.490;9.688;2022-10-16T09:55:35;4.65;;;1.50;;
45043;SDS011;30784;48.490;9.688;2022-10-16T09:58:01;5.32;;;1.80;;
45043;SDS011;30784;48.490;9.688;2022-10-16T10:00:26;4.30;;;1.40;;
45043;SDS011;30784;48.490;9.688;2022-10-16T10:02:52;4.68;;;1.15;;
45043;SDS011;30784;48.490;9.688;2022-10-16T10:05:20;3.05;;;1.00;;
45043;SDS011;30784;48.490;9.688;2022-10-16T10:07:52;3.55;;;1.05;;
45043;SDS011;30784;48.490;9.688;2022-10-16T10:10:30;3.30;;;0.80;;
45043;SDS011;30784;48.490;9.688;2022-10-16T10:13:02;3.90;;;0.90;;
45043;SDS011;30784;48.490;9.688;2022-10-16T10:15:28;4.15;;;1.10;;
45043;SDS011;30784;48.490;9.688;2022-10-16T10:17:59;3.90;;;1.10;;
45043;SDS011;30784;48.490;9.688;2022-10-16T10:20:32;3.95;;;1.10;;
45043;SDS011;30784;48.490;9.688;2022-10-16T10:22:59;2.80;;;0.80;;
45043;SDS011;30784;48.490;9.688;2022-10-16T10:39:38;2.25;;;0.80;;
45043;SDS011;30784;48.490;9.688;2022-10-16T11:04:33;4.80;;;0.90;;
45043;SDS011;30784;48.490;9.688;2022-10-16T11:07:13;2.97;;;1.10;;
45043;SDS011;30784;48.490;9.688;2022-10-16T11:10:01;3.85;;;1.00;;
45043;SDS011;30784;48.490;9.688;2022-10-16T11:12:52;2.30;;;0.90;;
45043;SDS011;30784;48.490;9.688;2022-10-16T11:15:37;3.55;;;0.80;;
45043;SDS011;30784;48.490;9.688;2022-10-16T11:20:43;3.72;;;1.08;;
45043;SDS011;30784;48.490;9.688;2022-10-16T11:23:15;3.25;;;1.00;;
45043;SDS011;30784;48.490;9.688;2022-10-16T11:26:04;2.77;;;0.90;;
45043;SDS011;30784;48.490;9.688;2022-10-16T11:28:42;3.67;;;1.02;;
45043;SDS011;30784;48.490;9.688;2022-10-16T11:33:57;3.13;;;0.93;;
45043;SDS011;30784;48.490;9.688;2022-10-16T11:39:08;3.03;;;0.95;;
45043;SDS011;30784;48.490;9.688;2022-10-16T11:41:47;1.90;;;0.80;;
45043;SDS011;30784;48.490;9.688;2022-10-16T11:44:24;4.33;;;1.00;;
45043;SDS011;30784;48.490;9.688;2022-10-16T11:55:41;3.08;;;1.00;;
45043;SDS011;30784;48.490;9.688;2022-10-16T11:58:12;6.70;;;1.70;;
45043;SDS011;30784;48.490;9.688;2022-10-16T12:00:54;4.32;;;1.58;;
45043;SDS011;30784;48.490;9.688;2022-10-16T12:08:35;2.53;;;1.00;;
45043;SDS011;30784;48.490;9.688;2022-10-16T12:11:36;2.85;;;0.80;;
45043;SDS011;30784;48.490;9.688;2022-10-16T12:14:07;2.25;;;0.85;;
45043;SDS011;30784;48.490;9.688;2022-10-16T12:16:37;7.63;;;1.10;;
45043;SDS011;30784;48.490;9.688;2022-10-16T12:21:57;5.05;;;1.50;;
45043;SDS011;30784;48.490;9.688;2022-10-16T12:27:04;5.07;;;1.10;;
45043;SDS011;30784;48.490;9.688;2022-10-16T12:31:59;4.20;;;1.30;;
45043;SDS011;30784;48.490;9.688;2022-10-16T12:34:39;2.35;;;0.90;;
45043;SDS011;30784;48.490;9.688;2022-10-16T12:37:13;2.60;;;1.00;;
45043;SDS011;30784;48.490;9.688;2022-10-16T12:39:46;2.65;;;0.80;;
45043;SDS011;30784;48.490;9.688;2022-10-16T12:44:50;3.97;;;0.90;;
45043;SDS011;30784;48.490;9.688;2022-10-16T12:47:51;3.28;;;0.80;;
45043;SDS011;30784;48.490;9.688;2022-10-16T12:50:25;2.67;;;0.80;;
45043;SDS011;30784;48.490;9.688;2022-10-16T12:52:56;4.43;;;0.82;;
45043;SDS011;30784;48.490;9.688;2022-10-16T12:55:22;3.83;;;0.90;;
45043;SDS011;30784;48.490;9.688;2022-10-16T13:09:27;5.53;;;1.85;;
45043;SDS011;30784;48.490;9.688;2022-10-16T13:15:39;2.47;;;0.90;;
45043;SDS011;30784;48.490;9.688;2022-10-16T13:18:23;2.83;;;0.75;;
45043;SDS011;30784;48.490;9.688;2022-10-16T13:29:33;2.83;;;1.00;;
45043;SDS011;30784;48.490;9.688;2022-10-16T13:32:00;4.35;;;1.42;;
45043;SDS011;30784;48.490;9.688;2022-10-16T13:34:31;4.03;;;1.20;;
45043;SDS011;30784;48.490;9.688;2022-10-16T13:36:57;4.45;;;1.17;;
45043;SDS011;30784;48.490;9.688;2022-10-16T13:39:27;3.50;;;1.00;;
45043;SDS011;30784;48.490;9.688;2022-10-16T13:42:04;2.63;;;0.85;;
45043;SDS011;30784;48.490;9.688;2022-10-16T13:44:33;3.47;;;1.02;;
45043;SDS011;30784;48.490;9.688;2022-10-16T13:47:04;2.60;;;0.90;;
45043;SDS011;30784;48.490;9.688;2022-10-16T13:49:30;4.93;;;0.90;;
45043;SDS011;30784;48.490;9.688;2022-10-16T13:51:56;4.78;;;0.90;;
45043;SDS011;30784;48.490;9.688;2022-10-16T13:54:25;2.88;;;0.90;;
45043;SDS011;30784;48.490;9.688;2022-10-16T13:56:53;1.77;;;0.70;;
45043;SDS011;30784;48.490;9.688;2022-10-16T13:59:52;3.00;;;0.93;;
45043;SDS011;30784;48.490;9.688;2022-10-16T14:02:18;3.72;;;0.90;;
45043;SDS011;30784;48.490;9.688;2022-10-16T14:04:47;3.38;;;0.90;;
45043;SDS011;30784;48.490;9.688;2022-10-16T14:07:14;2.22;;;0.80;;
45043;SDS011;30784;48.490;9.688;2022-10-16T14:09:51;1.67;;;0.70;;
45043;SDS011;30784;48.490;9.688;2022-10-16T14:12:17;1.85;;;0.88;;
45043;SDS011;30784;48.490;9.688;2022-10-16T14:14:45;2.38;;;0.80;;
45043;SDS011;30784;48.490;9.688;2022-10-16T14:19:51;3.20;;;1.02;;
45043;SDS011;30784;48.490;9.688;2022-10-16T14:24:56;4.93;;;1.23;;
45043;SDS011;30784;48.490;9.688;2022-10-16T14:27:32;2.40;;;0.80;;
45043;SDS011;30784;48.490;9.688;2022-10-16T14:30:21;3.75;;;1.00;;
45043;SDS011;30784;48.490;9.688;2022-10-16T14:33:01;2.60;;;0.75;;
45043;SDS011;30784;48.490;9.688;2022-10-16T14:35:35;3.13;;;0.90;;
45043;SDS011;30784;48.490;9.688;2022-10-16T14:38:05;2.70;;;0.80;;
45043;SDS011;30784;48.490;9.688;2022-10-16T14:40:45;3.00;;;0.95;;
45043;SDS011;30784;48.490;9.688;2022-10-16T14:43:20;3.17;;;0.80;;
45043;SDS011;30784;48.490;9.688;2022-10-16T14:45:51;2.63;;;0.80;;
45043;SDS011;30784;48.490;9.688;2022-10-16T14:48:20;4.85;;;0.90;;
45043;SDS011;30784;48.490;9.688;2022-10-16T14:50:46;3.63;;;1.00;;
45043;SDS011;30784;48.490;9.688;2022-10-16T14:53:12;2.80;;;1.00;;
45043;SDS011;30784;48.490;9.688;2022-10-16T14:55:39;2.75;;;1.08;;
45043;SDS011;30784;48.490;9.688;2022-10-16T14:58:07;3.00;;;0.90;;
45043;SDS011;30784;48.490;9.688;2022-10-16T15:00:45;3.10;;;1.00;;
45043;SDS011;30784;48.490;9.688;2022-10-16T15:03:11;1.95;;;0.95;;
45043;SDS011;30784;48.490;9.688;2022-10-16T15:05:37;4.70;;;0.88;;
45043;SDS011;30784;48.490;9.688;2022-10-16T15:08:03;1.73;;;0.80;;
45043;SDS011;30784;48.490;9.688;2022-10-16T15:10:29;1.80;;;0.70;;
45043;SDS011;30784;48.490;9.688;2022-10-16T15:12:58;2.08;;;1.00;;
45043;SDS011;30784;48.490;9.688;2022-10-16T15:15:29;2.67;;;0.90;;
45043;SDS011;30784;48.490;9.688;2022-10-16T15:18:01;3.10;;;1.00;;
45043;SDS011;30784;48.490;9.688;2022-10-16T15:20:28;2.63;;;1.00;;
45043;SDS011;30784;48.490;9.688;2022-10-16T15:22:56;3.15;;;1.00;;
45043;SDS011;30784;48.490;9.688;2022-10-16T15:25:56;4.07;;;1.30;;
45043;SDS011;30784;48.490;9.688;2022-10-16T15:28:16;3.33;;;1.20;;
45043;SDS011;30784;48.490;9.688;2022-10-16T15:30:42;3.25;;;1.02;;
45043;SDS011;30784;48.490;9.688;2022-10-16T15:33:15;4.63;;;1.10;;
45043;SDS011;30784;48.490;9.688;2022-10-16T15:35:46;5.47;;;1.20;;
45043;SDS011;30784;48.490;9.688;2022-10-16T15:38:13;6.22;;;1.60;;
45043;SDS011;30784;48.490;9.688;2022-10-16T15:40:40;3.72;;;1.17;;
45043;SDS011;30784;48.490;9.688;2022-10-16T15:43:06;3.80;;;1.35;;
45043;SDS011;30784;48.490;9.688;2022-10-16T15:45:32;3.70;;;1.17;;
45043;SDS011;30784;48.490;9.688;2022-10-16T15:47:58;2.65;;;1.08;;
45043;SDS011;30784;48.490;9.688;2022-10-16T15:50:23;4.70;;;1.13;;
45043;SDS011;30784;48.490;9.688;2022-10-16T15:52:49;4.32;;;1.25;;
45043;SDS011;30784;48.490;9.688;2022-10-16T15:55:16;4.40;;;0.98;;
45043;SDS011;30784;48.490;9.688;2022-10-16T15:57:43;5.05;;;1.10;;
45043;SDS011;30784;48.490;9.688;2022-10-16T16:00:11;3.53;;;1.08;;
45043;SDS011;30784;48.490;9.688;2022-10-16T16:02:39;3.63;;;1.00;;
45043;SDS011;30784;48.490;9.688;2022-10-16T16:05:06;5.32;;;1.40;;
45043;SDS011;30784;48.490;9.688;2022-10-16T16:07:36;3.75;;;1.20;;
45043;SDS011;30784;48.490;9.688;2022-10-16T16:12:30;4.93;;;1.40;;
45043;SDS011;30784;48.490;9.688;2022-10-16T16:14:55;5.25;;;1.30;;
45043;SDS011;30784;48.490;9.688;2022-10-16T16:17:21;4.43;;;1.42;;
45043;SDS011;30784;48.490;9.688;2022-10-16T16:19:47;10.07;;;5.38;;
45043;SDS011;30784;48.490;9.688;2022-10-16T16:22:12;7.10;;;2.45;;
45043;SDS011;30784;48.490;9.688;2022-10-16T16:24:38;5.10;;;1.50;;
45043;SDS011;30784;48.490;9.688;2022-10-16T16:27:04;5.00;;;1.90;;
45043;SDS011;30784;48.490;9.688;2022-10-16T16:29:29;6.75;;;2.50;;
45043;SDS011;30784;48.490;9.688;2022-10-16T16:31:55;5.28;;;1.98;;
45043;SDS011;30784;48.490;9.688;2022-10-16T16:34:28;5.30;;;1.70;;
45043;SDS011;30784;48.490;9.688;2022-10-16T16:36:55;6.25;;;2.28;;
45043;SDS011;30784;48.490;9.688;2022-10-16T16:39:21;10.75;;;3.47;;
45043;SDS011;30784;48.490;9.688;2022-10-16T16:41:46;6.85;;;2.75;;
45043;SDS011;30784;48.490;9.688;2022-10-16T16:44:12;9.82;;;4.53;;
45043;SDS011;30784;48.490;9.688;2022-10-16T16:46:39;11.75;;;5.40;;
45043;SDS011;30784;48.490;9.688;2022-10-16T16:49:05;12.77;;;5.88;;
45043;SDS011;30784;48.490;9.688;2022-10-16T16:51:32;12.02;;;5.68;;
45043;SDS011;30784;48.490;9.688;2022-10-16T16:53:58;17.83;;;11.35;;
45043;SDS011;30784;48.490;9.688;2022-10-16T16:56:25;14.93;;;6.88;;
45043;SDS011;30784;48.490;9.688;2022-10-16T16:58:52;12.35;;;5.63;;
45043;SDS011;30784;48.490;9.688;2022-10-16T17:01:19;10.25;;;4.70;;
45043;SDS011;30784;48.490;9.688;2022-10-16T17:03:46;9.65;;;3.85;;